EGPK/PIK METAR and TAF weather

Enter ICAO airport designator
Station Type Date Time Source
EGPK METAR 2021/08/01 17:50 UTC NOAA

EGPK 011750Z 24011KT 220V280 9999 FEW049 17/10 Q1014


Station Type Date Time Source
EGPK Decoded METAR 2021/08/01 17:50 UTC NOAA

Prestwick Airport, United Kingdom (EGPK) 55-30N 004-35W 0M
Aug 01, 2021 - 01:50 PM EDT / 2021.08.01 1750 UTC
Wind: from the WSW (240 degrees) at 13 MPH (11 KT) (direction variable):0
Visibility: greater than 7 mile(s):0
Sky conditions: mostly clear
Temperature: 62 F (17 C)
Dew Point: 50 F (10 C)
Relative Humidity: 63%
Pressure (altimeter): 29.94 in. Hg (1014 hPa)
ob: EGPK 011750Z 24011KT 220V280 9999 FEW049 17/10 Q1014
cycle: 18

Station Type Date Time Source
EGPK TAF 2021/08/01 18:09 UTC NOAA

TAF EGPK 011657Z 0118/0218 27012KT 9999 FEW045
BECMG 0123/0202 12006KT
BECMG 0206/0209 27010KT

Example: see airport list